Zim Iberia — 4XFP — position and weather

sailwx.info

Track history (hours):
 
Tides and Currents Weather Stations Pressure Air Temp Water Temp Dewpoint Dewpoint Depression Visibility Wind Speed Wind Dir Waves Ship Positions

Zim Iberia

Last reported at 2018-Jan-01 11:22 UTC. Time now 2018-Jan-18 13:48 UTC.
Position N 26°49' W 014°17'.
Warning: this ship's position is 17 days out of date.

Length 253.7 m; beam 32.2 m; draft 11.3 m.

Type: Ship. MMSI: 428000111.

Date/timePositionNaut miles runAvg speedWind from/ knotsBaromVisibWave heightAir tempDewpointWater temp
2018-Jan-01 11:22N 26°49' W 014°17'410.9
2018-Jan-01 10:58N 26°53' W 014°14'3711.2
2018-Jan-01 07:42N 27°22' W 013°50'211.9
2018-Jan-01 07:30N 27°24' W 013°49'711.7
2018-Jan-01 06:56N 27°30' W 013°44'1211.8
2018-Jan-01 05:57N 27°39' W 013°37'511.9
2018-Jan-01 05:30N 27°43' W 013°33'611.9
2018-Jan-01 05:00N 27°48' W 013°29'1211.8
2018-Jan-01 04:00N 27°57' W 013°21'612.0
2018-Jan-01 03:31N 28°01' W 013°16'611.6
2018-Jan-01 02:59N 28°05' W 013°11'611.4
2018-Jan-01 02:30N 28°09' W 013°06'611.5
2018-Jan-01 02:00N 28°13' W 013°01'611.4
2018-Jan-01 01:27N 28°16' W 012°55'1111.5
2018-Jan-01 00:30N 28°23' W 012°45'4011.6
2017-Dec-31 21:00N 28°49' W 012°10'611.4
2017-Dec-31 20:31N 28°52' W 012°05'611.7
2017-Dec-31 20:00N 28°56' W 011°59'611.5
2017-Dec-31 19:30N 28°59' W 011°54'611.7
2017-Dec-31 19:00N 29°02' W 011°48'611.1
2017-Dec-31 18:28N 29°06' W 011°43'811.3
2017-Dec-31 17:46N 29°11' W 011°36'311.3
2017-Dec-31 17:28N 29°13' W 011°33'611.4
2017-Dec-31 16:58N 29°17' W 011°28'611.3
2017-Dec-31 16:29N 29°20' W 011°23'611.3
2017-Dec-31 15:59N 29°24' W 011°18'611.2
2017-Dec-31 15:26N 29°28' W 011°13'511.2
2017-Dec-31 14:59N 29°31' W 011°08'1510.6
2017-Dec-31 13:34N 29°44' W 011°01'111.1
2017-Dec-31 13:26N 29°46' W 011°01'510.9
2017-Dec-31 12:57N 29°51' W 011°00'610.9
2017-Dec-31 12:26N 29°57' W 010°60'48911.2
2017-Dec-29 16:48N 38°04' W 010°08'310.7
2017-Dec-29 16:30N 38°07' W 010°08'610.8
2017-Dec-29 15:58N 38°13' W 010°07'511.0
2017-Dec-29 15:29N 38°19' W 010°06'511.1
2017-Dec-29 15:00N 38°24' W 010°06'510.8
2017-Dec-29 14:30N 38°29' W 010°05'510.8
2017-Dec-29 14:01N 38°35' W 010°05'611.1
2017-Dec-29 13:31N 38°40' W 010°06'510.8
2017-Dec-29 13:00N 38°46' W 010°06'510.8
2017-Dec-29 12:30N 38°51' W 010°06'510.8
2017-Dec-29 12:01N 38°56' W 010°06'510.5
2017-Dec-29 11:30N 39°02' W 010°05'510.5
2017-Dec-29 11:00N 39°07' W 010°04'510.2
2017-Dec-29 10:30N 39°12' W 010°04'510.4
2017-Dec-29 10:00N 39°17' W 010°03'510.5
2017-Dec-29 09:30N 39°22' W 010°02'510.2
2017-Dec-29 08:58N 39°28' W 010°01'  
2017-Dec-24 23:53N 47°52' W 006°29'1010.7
2017-Dec-24 22:58N 48°01' W 006°21'510.2
2017-Dec-24 22:27N 48°05' W 006°18'5 9.6
2017-Dec-24 21:59N 48°10' W 006°16'1110.0
2017-Dec-24 20:53N 48°20' W 006°10'18 9.3
2017-Dec-24 18:58N 48°38' W 006°06'9 8.9
2017-Dec-24 17:58N 48°46' W 006°05'8 8.1
2017-Dec-24 16:58N 48°52' W 005°57'1010.1
2017-Dec-24 15:58N 48°56' W 005°43'4011.4
2017-Dec-24 12:26N 49°16' W 004°50'611.3
2017-Dec-24 11:52N 49°20' W 004°41'411.1
2017-Dec-24 11:27N 49°22' W 004°35'2110.4
2017-Dec-24 09:26N 49°32' W 004°07'8 9.9
2017-Dec-24 08:39N 49°36' W 003°57'2 9.9
2017-Dec-24 08:25N 49°37' W 003°54'410.1
2017-Dec-24 08:00N 49°39' W 003°48'510.0
2017-Dec-24 07:30N 49°42' W 003°41'610.0
2017-Dec-24 06:56N 49°44' W 003°33'4 9.6
2017-Dec-24 06:29N 49°47' W 003°28'510.0
2017-Dec-24 06:00N 49°49' W 003°21'510.4
2017-Dec-24 05:30N 49°52' W 003°14'510.7
2017-Dec-24 05:00N 49°54' W 003°07'510.9
2017-Dec-24 04:30N 49°57' W 002°60'611.1
2017-Dec-24 04:00N 49°59' W 002°52'611.2
2017-Dec-24 03:30N 50°01' W 002°43'510.9
2017-Dec-24 03:00N 50°02' W 002°35'86 9.1
2017-Dec-23 17:31N 50°25' W 000°25'011.5
2017-Dec-23 17:31N 50°25' W 000°25'611.1
2017-Dec-23 17:00N 50°26' W 000°17'510.6
2017-Dec-23 16:30N 50°27' W 000°09'510.5
2017-Dec-23 16:00N 50°29' W 000°01'510.2
2017-Dec-23 15:31N 50°30' E 000°07'510.1
2017-Dec-23 15:00N 50°31' E 000°15'5 9.7
2017-Dec-23 14:31N 50°33' E 000°22'5 9.4
2017-Dec-23 14:00N 50°34' E 000°29'4 8.7
2017-Dec-23 13:31N 50°35' E 000°36'4 8.4
2017-Dec-23 13:00N 50°38' E 000°41'4 8.3
2017-Dec-23 12:31N 50°40' E 000°46'4 8.4
2017-Dec-23 11:59N 50°43' E 000°52'4 8.6
2017-Dec-23 11:31N 50°45' E 000°57'9 9.4
2017-Dec-23 10:36N 50°50' E 001°08'210.3
2017-Dec-23 10:26N 50°51' E 001°10'510.7
2017-Dec-23 10:00N 50°54' E 001°16'611.7
2017-Dec-23 09:30N 50°58' E 001°22'611.8
2017-Dec-23 09:00N 51°02' E 001°29'611.4
2017-Dec-23 08:31N 51°06' E 001°35'611.1
2017-Dec-23 08:00N 51°11' E 001°41'510.5
2017-Dec-23 07:30N 51°14' E 001°47'510.0
2017-Dec-23 07:01N 51°18' E 001°52'5 9.6
2017-Dec-23 06:30N 51°22' E 001°57'4 8.1
2017-Dec-23 06:00N 51°25' E 002°02'4 9.0
2017-Dec-23 05:30N 51°23' E 002°08'510.0
2017-Dec-23 05:00N 51°21' E 002°16'4 8.8
2017-Dec-23 04:30N 51°21' E 002°23'5 8.7
2017-Dec-23 03:58N 51°23' E 002°30'4 9.0
2017-Dec-23 03:30N 51°23' E 002°37'5 9.2
2017-Dec-23 02:59N 51°22' E 002°44'4 7.0
2017-Dec-23 02:28N 51°22' E 002°50'4 8.8
2017-Dec-23 02:00N 51°23' E 002°56'5 9.2
2017-Dec-23 01:31N 51°25' E 003°03'5 9.4
2017-Dec-23 01:01N 51°24' E 003°10'5 9.7
2017-Dec-23 00:30N 51°25' E 003°18'5 9.8
2017-Dec-23 00:01N 51°25' E 003°26'5 9.7
2017-Dec-22 23:30N 51°26' E 003°34'4 8.5
2017-Dec-22 23:00N 51°26' E 003°41'510.3
2017-Dec-22 22:31N 51°22' E 003°45'3 6.7
2017-Dec-22 22:00N 51°20' E 003°49'0 0.0
2017-Dec-22 21:30N 51°20' E 003°49'2 3.5
2017-Dec-22 21:01N 51°18' E 003°50'3 6.2
2017-Dec-22 20:30N 51°15' E 003°49'3 6.4
2017-Dec-22 20:01N 51°12' E 003°48'3 6.7
2017-Dec-22 19:31N 51°09' E 003°47'3 6.7
2017-Dec-22 19:00N 51°06' E 003°44'1 2.3
2017-Dec-22 18:30N 51°05' E 003°44'0 0.0
2017-Dec-22 17:58N 51°05' E 003°44'0 0.0
2017-Dec-22 17:28N 51°05' E 003°44'0 0.0
2017-Dec-22 16:59N 51°05' E 003°44'0 0.0
2017-Dec-22 16:28N 51°05' E 003°44'0 0.0
2017-Dec-22 15:58N 51°05' E 003°44'0 0.0
2017-Dec-22 15:28N 51°05' E 003°44'0 0.0
2017-Dec-22 14:59N 51°05' E 003°44'0 0.0
2017-Dec-22 14:28N 51°05' E 003°44'0 0.0
2017-Dec-22 13:58N 51°05' E 003°44'0 0.0
2017-Dec-22 13:29N 51°05' E 003°44'0 0.0
2017-Dec-22 12:58N 51°05' E 003°44'0 0.0
2017-Dec-22 12:28N 51°05' E 003°44'0 0.0
2017-Dec-22 11:58N 51°05' E 003°44'0 0.0
2017-Dec-22 11:29N 51°05' E 003°44'  
Track history (hours):
 
Tides and Currents Weather Stations Pressure Air Temp Water Temp Dewpoint Dewpoint Depression Visibility Wind Speed Wind Dir Waves Ship Positions

Zim Iberia

Last reported at 2018-Jan-01 11:22 UTC. Time now 2018-Jan-18 13:48 UTC.
Position N 26°49' W 014°17'.
Warning: this ship's position is 17 days out of date.

Length 253.7 m; beam 32.2 m; draft 11.3 m.

Type: Ship. MMSI: 428000111.

Date/timePositionNaut miles runAvg speedWind from/ knotsBaromVisibWave heightAir tempDewpointWater temp
2018-Jan-01 11:22N 26°49' W 014°17'410.9
2018-Jan-01 10:58N 26°53' W 014°14'3711.2
2018-Jan-01 07:42N 27°22' W 013°50'211.9
2018-Jan-01 07:30N 27°24' W 013°49'711.7
2018-Jan-01 06:56N 27°30' W 013°44'1211.8
2018-Jan-01 05:57N 27°39' W 013°37'511.9
2018-Jan-01 05:30N 27°43' W 013°33'611.9
2018-Jan-01 05:00N 27°48' W 013°29'1211.8
2018-Jan-01 04:00N 27°57' W 013°21'612.0
2018-Jan-01 03:31N 28°01' W 013°16'611.6
2018-Jan-01 02:59N 28°05' W 013°11'611.4
2018-Jan-01 02:30N 28°09' W 013°06'611.5
2018-Jan-01 02:00N 28°13' W 013°01'611.4
2018-Jan-01 01:27N 28°16' W 012°55'1111.5
2018-Jan-01 00:30N 28°23' W 012°45'4011.6
2017-Dec-31 21:00N 28°49' W 012°10'611.4
2017-Dec-31 20:31N 28°52' W 012°05'611.7
2017-Dec-31 20:00N 28°56' W 011°59'611.5
2017-Dec-31 19:30N 28°59' W 011°54'611.7
2017-Dec-31 19:00N 29°02' W 011°48'611.1
2017-Dec-31 18:28N 29°06' W 011°43'811.3
2017-Dec-31 17:46N 29°11' W 011°36'311.3
2017-Dec-31 17:28N 29°13' W 011°33'611.4
2017-Dec-31 16:58N 29°17' W 011°28'611.3
2017-Dec-31 16:29N 29°20' W 011°23'611.3
2017-Dec-31 15:59N 29°24' W 011°18'611.2
2017-Dec-31 15:26N 29°28' W 011°13'511.2
2017-Dec-31 14:59N 29°31' W 011°08'1510.6
2017-Dec-31 13:34N 29°44' W 011°01'111.1
2017-Dec-31 13:26N 29°46' W 011°01'510.9
2017-Dec-31 12:57N 29°51' W 011°00'610.9
2017-Dec-31 12:26N 29°57' W 010°60'48911.2
2017-Dec-29 16:48N 38°04' W 010°08'310.7
2017-Dec-29 16:30N 38°07' W 010°08'610.8
2017-Dec-29 15:58N 38°13' W 010°07'511.0
2017-Dec-29 15:29N 38°19' W 010°06'511.1
2017-Dec-29 15:00N 38°24' W 010°06'510.8
2017-Dec-29 14:30N 38°29' W 010°05'510.8
2017-Dec-29 14:01N 38°35' W 010°05'611.1
2017-Dec-29 13:31N 38°40' W 010°06'510.8
2017-Dec-29 13:00N 38°46' W 010°06'510.8
2017-Dec-29 12:30N 38°51' W 010°06'510.8
2017-Dec-29 12:01N 38°56' W 010°06'510.5
2017-Dec-29 11:30N 39°02' W 010°05'510.5
2017-Dec-29 11:00N 39°07' W 010°04'510.2
2017-Dec-29 10:30N 39°12' W 010°04'510.4
2017-Dec-29 10:00N 39°17' W 010°03'510.5
2017-Dec-29 09:30N 39°22' W 010°02'510.2
2017-Dec-29 08:58N 39°28' W 010°01'  
2017-Dec-24 23:53N 47°52' W 006°29'1010.7
2017-Dec-24 22:58N 48°01' W 006°21'510.2
2017-Dec-24 22:27N 48°05' W 006°18'5 9.6
2017-Dec-24 21:59N 48°10' W 006°16'1110.0
2017-Dec-24 20:53N 48°20' W 006°10'18 9.3
2017-Dec-24 18:58N 48°38' W 006°06'9 8.9
2017-Dec-24 17:58N 48°46' W 006°05'8 8.1
2017-Dec-24 16:58N 48°52' W 005°57'1010.1
2017-Dec-24 15:58N 48°56' W 005°43'4011.4
2017-Dec-24 12:26N 49°16' W 004°50'611.3
2017-Dec-24 11:52N 49°20' W 004°41'411.1
2017-Dec-24 11:27N 49°22' W 004°35'2110.4
2017-Dec-24 09:26N 49°32' W 004°07'8 9.9
2017-Dec-24 08:39N 49°36' W 003°57'2 9.9
2017-Dec-24 08:25N 49°37' W 003°54'410.1
2017-Dec-24 08:00N 49°39' W 003°48'510.0
2017-Dec-24 07:30N 49°42' W 003°41'610.0
2017-Dec-24 06:56N 49°44' W 003°33'4 9.6
2017-Dec-24 06:29N 49°47' W 003°28'510.0
2017-Dec-24 06:00N 49°49' W 003°21'510.4
2017-Dec-24 05:30N 49°52' W 003°14'510.7
2017-Dec-24 05:00N 49°54' W 003°07'510.9
2017-Dec-24 04:30N 49°57' W 002°60'611.1
2017-Dec-24 04:00N 49°59' W 002°52'611.2
2017-Dec-24 03:30N 50°01' W 002°43'510.9
2017-Dec-24 03:00N 50°02' W 002°35'86 9.1
2017-Dec-23 17:31N 50°25' W 000°25'011.5
2017-Dec-23 17:31N 50°25' W 000°25'611.1
2017-Dec-23 17:00N 50°26' W 000°17'510.6
2017-Dec-23 16:30N 50°27' W 000°09'510.5
2017-Dec-23 16:00N 50°29' W 000°01'510.2
2017-Dec-23 15:31N 50°30' E 000°07'510.1
2017-Dec-23 15:00N 50°31' E 000°15'5 9.7
2017-Dec-23 14:31N 50°33' E 000°22'5 9.4
2017-Dec-23 14:00N 50°34' E 000°29'4 8.7
2017-Dec-23 13:31N 50°35' E 000°36'4 8.4
2017-Dec-23 13:00N 50°38' E 000°41'4 8.3
2017-Dec-23 12:31N 50°40' E 000°46'4 8.4
2017-Dec-23 11:59N 50°43' E 000°52'4 8.6
2017-Dec-23 11:31N 50°45' E 000°57'9 9.4
2017-Dec-23 10:36N 50°50' E 001°08'210.3
2017-Dec-23 10:26N 50°51' E 001°10'510.7
2017-Dec-23 10:00N 50°54' E 001°16'611.7
2017-Dec-23 09:30N 50°58' E 001°22'611.8
2017-Dec-23 09:00N 51°02' E 001°29'611.4
2017-Dec-23 08:31N 51°06' E 001°35'611.1
2017-Dec-23 08:00N 51°11' E 001°41'510.5
2017-Dec-23 07:30N 51°14' E 001°47'510.0
2017-Dec-23 07:01N 51°18' E 001°52'5 9.6
2017-Dec-23 06:30N 51°22' E 001°57'4 8.1
2017-Dec-23 06:00N 51°25' E 002°02'4 9.0
2017-Dec-23 05:30N 51°23' E 002°08'510.0
2017-Dec-23 05:00N 51°21' E 002°16'4 8.8
2017-Dec-23 04:30N 51°21' E 002°23'5 8.7
2017-Dec-23 03:58N 51°23' E 002°30'4 9.0
2017-Dec-23 03:30N 51°23' E 002°37'5 9.2
2017-Dec-23 02:59N 51°22' E 002°44'4 7.0
2017-Dec-23 02:28N 51°22' E 002°50'4 8.8
2017-Dec-23 02:00N 51°23' E 002°56'5 9.2
2017-Dec-23 01:31N 51°25' E 003°03'5 9.4
2017-Dec-23 01:01N 51°24' E 003°10'5 9.7
2017-Dec-23 00:30N 51°25' E 003°18'5 9.8
2017-Dec-23 00:01N 51°25' E 003°26'5 9.7
2017-Dec-22 23:30N 51°26' E 003°34'4 8.5
2017-Dec-22 23:00N 51°26' E 003°41'510.3
2017-Dec-22 22:31N 51°22' E 003°45'3 6.7
2017-Dec-22 22:00N 51°20' E 003°49'0 0.0
2017-Dec-22 21:30N 51°20' E 003°49'2 3.5
2017-Dec-22 21:01N 51°18' E 003°50'3 6.2
2017-Dec-22 20:30N 51°15' E 003°49'3 6.4
2017-Dec-22 20:01N 51°12' E 003°48'3 6.7
2017-Dec-22 19:31N 51°09' E 003°47'3 6.7
2017-Dec-22 19:00N 51°06' E 003°44'1 2.3
2017-Dec-22 18:30N 51°05' E 003°44'0 0.0
2017-Dec-22 17:58N 51°05' E 003°44'0 0.0
2017-Dec-22 17:28N 51°05' E 003°44'0 0.0
2017-Dec-22 16:59N 51°05' E 003°44'0 0.0
2017-Dec-22 16:28N 51°05' E 003°44'0 0.0
2017-Dec-22 15:58N 51°05' E 003°44'0 0.0
2017-Dec-22 15:28N 51°05' E 003°44'0 0.0
2017-Dec-22 14:59N 51°05' E 003°44'0 0.0
2017-Dec-22 14:28N 51°05' E 003°44'0 0.0
2017-Dec-22 13:58N 51°05' E 003°44'0 0.0
2017-Dec-22 13:29N 51°05' E 003°44'0 0.0
2017-Dec-22 12:58N 51°05' E 003°44'0 0.0
2017-Dec-22 12:28N 51°05' E 003°44'0 0.0
2017-Dec-22 11:58N 51°05' E 003°44'0 0.0
2017-Dec-22 11:29N 51°05' E 003°44'  

Dump ship's entire track history